CA-0102 weather

CLOSED Crater Airport
Alberta, Canada

Public forecast

Using degrees Celsius for public forecast. Weather courtesy of forecast.io.

Closest aviation weather report (METAR) to Crater Airport

Closest report is High Level Airport, 47.6 nm (88.2 km) E. Retrieved 2019/10/14 17:00 UTC (34 minutes ago):

CYOJ 141700Z 04003KT 15SM BKN020 OVC024 00/M03 A3017 RMK SC5SC3 SLP239

Closest aviation forecast (TAF) to Crater Airport

Closest forecast is High Level Airport, 47.6 nm (88.2 km) E. Retrieved 2019/10/14 13:42 UTC (4 hours ago):

TAF CYOJ 141238Z 1413/1501 36005KT P6SM OVC030 TEMPO 1413/1418 OVC020 FM141800 12006KT P6SM BKN030 TEMPO 1418/1501 SCT030 RMK FCST BASED ON AUTO OBS NXT FCST BY 141900Z